createdAt,value
2023-03-04T00:00:10.567Z,75.33
2023-03-04T00:00:45.802Z,75.70
2023-03-04T00:01:18.191Z,75.75
2023-03-04T00:01:50.745Z,75.58
2023-03-04T00:02:23.524Z,75.58
2023-03-04T00:02:56.028Z,75.72
2023-03-04T00:03:28.357Z,75.89
2023-03-04T00:04:00.653Z,75.93
2023-03-04T00:04:32.979Z,75.79
2023-03-04T00:05:05.675Z,75.60
2023-03-04T00:05:38.246Z,75.30
2023-03-04T00:06:10.633Z,75.28
2023-03-04T00:06:42.916Z,75.44
2023-03-04T00:07:17.030Z,75.44
2023-03-04T00:07:49.479Z,75.22
2023-03-04T00:08:21.776Z,75.36
2023-03-04T00:08:54.254Z,75.23
2023-03-04T00:09:26.941Z,75.41
2023-03-04T00:09:59.218Z,75.53
2023-03-04T00:10:31.610Z,75.64
2023-03-04T00:11:03.981Z,76.10
2023-03-04T00:11:36.509Z,76.21
2023-03-04T00:12:08.892Z,76.25
2023-03-04T00:12:41.324Z,76.81
2023-03-04T00:13:13.646Z,76.82
2023-03-04T00:13:45.985Z,76.67
2023-03-04T00:14:18.354Z,76.52
2023-03-04T00:14:50.670Z,76.43
2023-03-04T00:15:22.966Z,76.49
2023-03-04T00:15:55.272Z,76.65
2023-03-04T00:16:27.655Z,77.01
2023-03-04T00:17:00.118Z,77.19
2023-03-04T00:17:32.451Z,77.45
2023-03-04T00:18:04.838Z,77.52
2023-03-04T00:18:37.243Z,76.85
2023-03-04T00:19:11.193Z,75.80
2023-03-04T00:19:43.574Z,75.30
2023-03-04T00:20:15.882Z,75.42
2023-03-04T00:20:49.746Z,75.45
2023-03-04T00:21:22.570Z,75.67
2023-03-04T00:21:54.874Z,75.77
2023-03-04T00:22:27.144Z,75.97
2023-03-04T00:22:59.452Z,76.07
2023-03-04T00:23:31.788Z,76.17
2023-03-04T00:24:04.124Z,76.33
2023-03-04T00:24:36.465Z,76.35
2023-03-04T00:25:08.952Z,76.35
2023-03-04T00:25:43.443Z,76.45
2023-03-04T00:26:16.887Z,76.79
2023-03-04T00:26:49.211Z,76.91
2023-03-04T00:27:21.507Z,76.82
2023-03-04T00:27:53.854Z,76.96
2023-03-04T00:28:26.167Z,76.95
2023-03-04T00:28:58.498Z,76.23
2023-03-04T00:29:30.813Z,75.23
2023-03-04T00:30:03.574Z,74.95
2023-03-04T00:30:35.864Z,74.90
2023-03-04T00:31:08.794Z,74.85
2023-03-04T00:31:41.119Z,74.89
2023-03-04T00:32:13.475Z,75.45
2023-03-04T00:32:45.921Z,75.66
2023-03-04T00:33:18.393Z,75.56
2023-03-04T00:33:50.849Z,75.81
2023-03-04T00:34:23.159Z,76.32
2023-03-04T00:34:55.471Z,76.54
2023-03-04T00:35:27.882Z,76.13
2023-03-04T00:36:00.724Z,75.35
2023-03-04T00:36:33.064Z,74.73
2023-03-04T00:37:05.388Z,74.60
2023-03-04T00:37:37.688Z,74.51
2023-03-04T00:38:09.970Z,74.63
2023-03-04T00:38:42.338Z,74.88
2023-03-04T00:39:15.002Z,75.11
2023-03-04T00:39:47.436Z,75.69
2023-03-04T00:40:19.870Z,75.62
2023-03-04T00:40:52.166Z,75.50
2023-03-04T00:41:24.449Z,75.56
2023-03-04T00:41:56.754Z,75.61
2023-03-04T00:42:29.071Z,75.81
2023-03-04T00:43:01.402Z,76.07
2023-03-04T00:43:33.762Z,76.24
2023-03-04T00:44:06.614Z,76.10
2023-03-04T00:44:39.051Z,75.99
2023-03-04T00:45:11.488Z,75.98
2023-03-04T00:45:43.858Z,75.97
2023-03-04T00:46:16.185Z,76.09
2023-03-04T00:46:48.516Z,76.20
2023-03-04T00:47:20.846Z,76.31
2023-03-04T00:47:53.177Z,76.41
2023-03-04T00:48:26.041Z,76.36
2023-03-04T00:48:58.312Z,76.27
2023-03-04T00:49:30.582Z,76.33
2023-03-04T00:50:04.186Z,76.33
2023-03-04T00:50:37.410Z,76.29
2023-03-04T00:51:09.781Z,76.05
2023-03-04T00:51:42.080Z,75.94
2023-03-04T00:52:14.403Z,75.76
2023-03-04T00:52:46.701Z,75.81
2023-03-04T00:53:18.972Z,75.92
2023-03-04T00:53:52.328Z,75.77
2023-03-04T00:54:24.703Z,75.02
2023-03-04T00:54:56.993Z,74.26
2023-03-04T00:55:29.268Z,74.05
2023-03-04T00:56:01.603Z,74.00
2023-03-04T00:56:33.932Z,74.07
2023-03-04T00:57:06.267Z,74.32
2023-03-04T00:57:38.541Z,74.57
2023-03-04T00:58:10.825Z,74.67
2023-03-04T00:58:43.155Z,74.81
2023-03-04T00:59:15.525Z,74.77
2023-03-04T00:59:47.824Z,74.61
2023-03-04T01:00:20.490Z,74.39
2023-03-04T01:00:52.819Z,74.45
2023-03-04T01:01:25.141Z,74.41
2023-03-04T01:01:57.524Z,74.33
2023-03-04T01:02:29.957Z,74.36
2023-03-04T01:03:02.351Z,74.34
2023-03-04T01:03:34.690Z,73.94
2023-03-04T01:04:06.961Z,73.85
2023-03-04T01:04:39.645Z,73.87
2023-03-04T01:05:12.385Z,74.04
2023-03-04T01:05:44.711Z,74.15
2023-03-04T01:06:17.222Z,74.47
2023-03-04T01:06:49.553Z,74.91
2023-03-04T01:07:22.050Z,75.18
2023-03-04T01:07:54.413Z,75.05
2023-03-04T01:08:26.959Z,74.98
2023-03-04T01:08:59.262Z,74.93
2023-03-04T01:09:31.695Z,74.97
2023-03-04T01:10:05.648Z,75.03
2023-03-04T01:10:37.918Z,75.12
2023-03-04T01:11:10.312Z,75.10
2023-03-04T01:11:42.623Z,75.00
2023-03-04T01:12:14.955Z,75.04
2023-03-04T01:12:47.315Z,75.28
2023-03-04T01:13:19.691Z,75.89
2023-03-04T01:13:52.005Z,75.79
2023-03-04T01:14:24.454Z,75.98
2023-03-04T01:14:56.826Z,76.20
2023-03-04T01:15:29.132Z,76.45
2023-03-04T01:16:01.688Z,76.53
2023-03-04T01:16:34.106Z,75.95
2023-03-04T01:17:06.445Z,75.61
2023-03-04T01:17:38.839Z,75.19
2023-03-04T01:18:11.377Z,74.84
2023-03-04T01:18:43.812Z,74.68
2023-03-04T01:19:16.578Z,74.49
2023-03-04T01:19:49.035Z,74.42
2023-03-04T01:20:21.384Z,74.31
2023-03-04T01:20:53.796Z,74.20
2023-03-04T01:21:26.095Z,74.12
2023-03-04T01:21:58.371Z,73.94
2023-03-04T01:22:30.679Z,73.86
2023-03-04T01:23:02.999Z,73.63
2023-03-04T01:23:35.371Z,73.30
2023-03-04T01:24:07.850Z,72.69
2023-03-04T01:24:40.132Z,72.00
2023-03-04T01:25:12.637Z,71.79
2023-03-04T01:25:44.978Z,71.77
2023-03-04T01:26:17.545Z,71.82
2023-03-04T01:26:49.860Z,71.74
2023-03-04T01:27:22.402Z,71.81
2023-03-04T01:27:54.699Z,71.64
2023-03-04T01:28:26.983Z,71.35
2023-03-04T01:28:59.323Z,71.10
2023-03-04T01:29:31.641Z,71.22
2023-03-04T01:30:05.204Z,71.53
2023-03-04T01:30:37.585Z,71.78
2023-03-04T01:31:09.955Z,71.85
2023-03-04T01:31:42.335Z,72.27
2023-03-04T01:32:14.701Z,71.71
2023-03-04T01:32:47.055Z,71.47
2023-03-04T01:33:19.355Z,71.41
2023-03-04T01:33:51.825Z,71.05
2023-03-04T01:34:24.160Z,71.13
2023-03-04T01:34:56.528Z,70.92
2023-03-04T01:35:28.877Z,71.00
2023-03-04T01:36:01.199Z,71.00
2023-03-04T01:36:33.527Z,70.87
2023-03-04T01:37:06.053Z,70.73
2023-03-04T01:37:38.345Z,70.96
2023-03-04T01:38:10.722Z,71.19
2023-03-04T01:38:43.019Z,71.43
2023-03-04T01:39:15.360Z,71.56
2023-03-04T01:39:47.674Z,71.88
2023-03-04T01:40:20.213Z,72.34
2023-03-04T01:40:53.116Z,72.83
2023-03-04T01:41:27.171Z,73.33
2023-03-04T01:41:59.758Z,73.81
2023-03-04T01:42:34.896Z,74.41
2023-03-04T01:43:11.260Z,74.86
2023-03-04T01:43:45.061Z,74.96
2023-03-04T01:44:17.677Z,74.90
2023-03-04T01:44:51.531Z,74.36
2023-03-04T01:45:24.367Z,73.57
2023-03-04T01:45:58.521Z,73.20
2023-03-04T01:46:32.020Z,73.33
2023-03-04T01:47:04.435Z,73.73
2023-03-04T01:47:36.836Z,74.76
2023-03-04T01:48:12.890Z,75.12
2023-03-04T01:48:45.217Z,75.28
2023-03-04T01:49:18.464Z,75.20
2023-03-04T01:49:55.004Z,75.20
2023-03-04T01:50:34.536Z,75.17
2023-03-04T01:51:14.212Z,75.32
2023-03-04T01:51:50.541Z,75.72
2023-03-04T01:52:23.697Z,76.22
2023-03-04T01:52:56.069Z,76.96
2023-03-04T01:53:29.332Z,76.99
2023-03-04T01:54:01.643Z,77.30
2023-03-04T01:54:33.944Z,77.65
2023-03-04T01:55:15.668Z,77.73
2023-03-04T01:55:48.648Z,77.33
2023-03-04T01:56:31.205Z,77.51
2023-03-04T01:57:28.052Z,77.57
2023-03-04T01:58:00.906Z,77.46
2023-03-04T01:58:33.347Z,77.34
2023-03-04T01:59:18.404Z,77.32
2023-03-04T02:00:15.389Z,77.45
2023-03-04T02:00:47.785Z,77.27
2023-03-04T02:01:20.098Z,77.00
2023-03-04T02:01:55.840Z,76.74
2023-03-04T02:02:28.219Z,76.54
2023-03-04T02:03:11.487Z,76.42
2023-03-04T02:03:43.759Z,76.42
2023-03-04T02:04:17.746Z,76.30
2023-03-04T02:04:50.091Z,75.86
2023-03-04T02:05:22.888Z,75.20
2023-03-04T02:05:56.447Z,73.99
2023-03-04T02:06:28.763Z,73.23
2023-03-04T02:07:03.417Z,72.86
2023-03-04T02:07:36.055Z,72.50
2023-03-04T02:08:10.382Z,72.19
2023-03-04T02:08:42.739Z,72.33
2023-03-04T02:09:16.460Z,72.48
2023-03-04T02:09:49.265Z,72.70
2023-03-04T02:10:22.048Z,72.75
2023-03-04T02:10:55.321Z,73.03
2023-03-04T02:11:27.634Z,73.46
2023-03-04T02:12:00.743Z,73.39
2023-03-04T02:12:33.080Z,73.12
2023-03-04T02:13:06.303Z,73.08
2023-03-04T02:13:38.637Z,73.22
2023-03-04T02:14:12.644Z,73.45
2023-03-04T02:14:44.992Z,73.64
2023-03-04T02:15:17.802Z,73.85
2023-03-04T02:15:50.179Z,74.04
2023-03-04T02:16:22.494Z,74.14
2023-03-04T02:16:54.888Z,74.42
2023-03-04T02:17:28.090Z,74.74
2023-03-04T02:18:01.450Z,74.64
2023-03-04T02:18:33.744Z,74.40
2023-03-04T02:19:34.514Z,74.55
2023-03-04T02:20:21.307Z,74.83
2023-03-04T02:21:11.287Z,74.61
2023-03-04T02:21:43.625Z,74.78
2023-03-04T02:22:16.026Z,74.62
2023-03-04T02:23:01.030Z,74.59
2023-03-04T02:23:46.856Z,74.63
2023-03-04T02:24:47.593Z,74.92
2023-03-04T02:25:26.914Z,75.02
2023-03-04T02:26:15.900Z,74.57
2023-03-04T02:26:48.400Z,74.12
2023-03-04T02:27:22.104Z,74.04
2023-03-04T02:27:54.549Z,73.53
2023-03-04T02:28:26.882Z,73.41
2023-03-04T02:29:00.236Z,73.37
2023-03-04T02:29:32.851Z,73.17
2023-03-04T02:30:06.237Z,72.89
2023-03-04T02:30:38.722Z,72.58
2023-03-04T02:31:33.097Z,72.50
2023-03-04T02:32:05.543Z,72.66
2023-03-04T02:32:37.858Z,72.76
2023-03-04T02:33:18.588Z,72.78
2023-03-04T02:33:52.571Z,72.71
2023-03-04T02:34:29.761Z,72.60
2023-03-04T02:35:02.322Z,72.57
2023-03-04T02:35:34.682Z,72.62
2023-03-04T02:36:07.359Z,72.69
2023-03-04T02:36:40.910Z,72.68
2023-03-04T02:37:13.872Z,72.89
2023-03-04T02:37:46.207Z,72.97
2023-03-04T02:38:18.551Z,73.05
2023-03-04T02:38:53.388Z,73.26
2023-03-04T02:39:32.519Z,73.31
2023-03-04T02:40:06.510Z,73.12
2023-03-04T02:40:43.208Z,73.10
2023-03-04T02:41:20.459Z,73.16
2023-03-04T02:41:55.186Z,73.01
2023-03-04T02:42:27.480Z,72.86
2023-03-04T02:43:00.819Z,72.83
2023-03-04T02:43:33.127Z,72.92
2023-03-04T02:44:20.323Z,72.80
2023-03-04T02:45:00.808Z,72.55
2023-03-04T02:45:33.017Z,71.98
2023-03-04T02:46:06.013Z,71.51
2023-03-04T02:46:38.338Z,71.58
2023-03-04T02:47:12.001Z,71.54
2023-03-04T02:47:44.303Z,71.51
2023-03-04T02:48:21.574Z,71.54
2023-03-04T02:48:54.171Z,71.59
2023-03-04T02:49:29.734Z,71.74
2023-03-04T02:50:02.065Z,71.95
2023-03-04T02:50:39.192Z,72.17
2023-03-04T02:51:11.757Z,72.50
2023-03-04T02:51:44.195Z,72.85
2023-03-04T02:52:22.396Z,72.94
2023-03-04T02:52:54.700Z,73.01
2023-03-04T02:53:27.259Z,73.04
2023-03-04T02:53:59.565Z,72.98
2023-03-04T02:54:32.025Z,72.97
2023-03-04T02:55:04.577Z,72.84
2023-03-04T02:55:37.128Z,72.94
2023-03-04T02:56:09.417Z,72.88
2023-03-04T02:56:52.712Z,72.72
2023-03-04T02:57:25.030Z,72.66
2023-03-04T02:57:57.353Z,72.78
2023-03-04T02:58:29.904Z,72.72
2023-03-04T02:59:02.475Z,72.54
2023-03-04T02:59:36.137Z,72.51
2023-03-04T03:00:08.928Z,72.68
2023-03-04T03:00:41.261Z,72.69
2023-03-04T03:01:13.559Z,72.59
2023-03-04T03:01:46.682Z,72.63
2023-03-04T03:02:18.972Z,72.75
2023-03-04T03:02:51.654Z,72.98
2023-03-04T03:03:23.926Z,73.07
2023-03-04T03:03:56.267Z,73.36
2023-03-04T03:04:29.221Z,73.69
2023-03-04T03:05:01.694Z,73.82
2023-03-04T03:05:35.023Z,73.72
2023-03-04T03:06:07.555Z,73.52
2023-03-04T03:06:40.879Z,73.09
2023-03-04T03:07:13.568Z,73.04
2023-03-04T03:07:45.878Z,73.07
2023-03-04T03:08:18.198Z,73.16
2023-03-04T03:08:50.459Z,73.26
2023-03-04T03:09:22.972Z,73.47
2023-03-04T03:09:55.310Z,73.46
2023-03-04T03:10:27.611Z,73.39
2023-03-04T03:10:59.936Z,73.46
2023-03-04T03:11:32.450Z,73.35
2023-03-04T03:12:04.904Z,73.01
2023-03-04T03:12:37.193Z,72.74
2023-03-04T03:13:09.518Z,72.97
2023-03-04T03:13:41.819Z,73.48
2023-03-04T03:14:14.099Z,73.47
2023-03-04T03:14:46.434Z,73.50
2023-03-04T03:15:19.144Z,73.81
2023-03-04T03:15:51.420Z,74.17
2023-03-04T03:16:24.328Z,74.27
2023-03-04T03:16:56.671Z,74.08
2023-03-04T03:17:29.268Z,73.80
2023-03-04T03:18:01.594Z,74.16
2023-03-04T03:18:33.980Z,74.39
2023-03-04T03:19:06.752Z,74.59
2023-03-04T03:19:39.064Z,74.62
2023-03-04T03:20:13.286Z,74.36
2023-03-04T03:20:45.575Z,74.88
2023-03-04T03:21:18.214Z,74.82
2023-03-04T03:21:50.516Z,74.65
2023-03-04T03:22:22.943Z,74.92
2023-03-04T03:22:55.305Z,75.20
2023-03-04T03:23:27.598Z,75.46
2023-03-04T03:23:59.900Z,75.76
2023-03-04T03:24:32.241Z,75.90
2023-03-04T03:25:05.268Z,76.01
2023-03-04T03:25:38.057Z,76.06
2023-03-04T03:26:10.441Z,76.40
2023-03-04T03:26:42.713Z,76.21
2023-03-04T03:27:14.974Z,76.00
2023-03-04T03:27:47.338Z,76.03
2023-03-04T03:28:19.616Z,76.07
2023-03-04T03:28:51.908Z,76.11
2023-03-04T03:29:24.205Z,76.32
2023-03-04T03:29:56.741Z,76.40
2023-03-04T03:30:29.042Z,76.54
2023-03-04T03:31:01.362Z,76.64
2023-03-04T03:31:33.649Z,76.52
2023-03-04T03:32:06.344Z,76.20
2023-03-04T03:32:38.806Z,76.06
2023-03-04T03:33:11.137Z,76.14
2023-03-04T03:33:43.459Z,76.22
2023-03-04T03:34:15.790Z,76.31
2023-03-04T03:34:48.116Z,76.39
2023-03-04T03:35:20.475Z,76.31
2023-03-04T03:35:52.903Z,76.19
2023-03-04T03:36:25.330Z,76.02
2023-03-04T03:36:58.366Z,76.15
2023-03-04T03:37:30.669Z,75.94
2023-03-04T03:38:02.964Z,75.72
2023-03-04T03:38:35.312Z,75.79
2023-03-04T03:39:07.574Z,75.78
2023-03-04T03:39:39.888Z,75.64
2023-03-04T03:40:12.757Z,75.71
2023-03-04T03:40:45.056Z,75.47
2023-03-04T03:41:17.326Z,75.13
2023-03-04T03:41:50.183Z,75.44
2023-03-04T03:42:22.551Z,75.32
2023-03-04T03:42:54.859Z,75.09
2023-03-04T03:43:27.146Z,75.83
2023-03-04T03:43:59.438Z,76.00
2023-03-04T03:44:31.831Z,75.82
2023-03-04T03:45:04.412Z,76.15
2023-03-04T03:45:36.853Z,76.07
2023-03-04T03:46:09.239Z,76.01
2023-03-04T03:46:41.602Z,75.84
2023-03-04T03:47:14.032Z,75.56
2023-03-04T03:47:46.306Z,75.52
2023-03-04T03:48:18.829Z,75.28
2023-03-04T03:48:51.115Z,75.18
2023-03-04T03:49:23.385Z,75.05
2023-03-04T03:49:55.688Z,75.15
2023-03-04T03:50:29.445Z,75.04
2023-03-04T03:51:01.762Z,75.03
2023-03-04T03:51:34.088Z,74.79
2023-03-04T03:52:08.321Z,74.41
2023-03-04T03:52:40.721Z,74.26
2023-03-04T03:53:13.003Z,73.96
2023-03-04T03:53:45.309Z,73.93
2023-03-04T03:54:17.735Z,74.22
2023-03-04T03:54:50.076Z,74.39
2023-03-04T03:55:22.624Z,74.40
2023-03-04T03:55:54.885Z,74.57
2023-03-04T03:56:27.147Z,74.69
2023-03-04T03:56:59.424Z,74.63
2023-03-04T03:57:31.753Z,74.71
2023-03-04T03:58:04.131Z,74.82
2023-03-04T03:58:36.419Z,74.58
2023-03-04T03:59:08.723Z,73.96
2023-03-04T03:59:41.082Z,73.71
2023-03-04T04:00:14.083Z,73.64
2023-03-04T04:00:46.362Z,73.72
2023-03-04T04:01:18.690Z,73.68
2023-03-04T04:01:51.268Z,73.79
2023-03-04T04:02:24.297Z,73.96
2023-03-04T04:02:59.898Z,74.10
2023-03-04T04:03:32.186Z,73.88
2023-03-04T04:04:04.683Z,73.90
2023-03-04T04:04:36.978Z,73.96
2023-03-04T04:05:09.803Z,73.93
2023-03-04T04:05:42.081Z,73.95
2023-03-04T04:06:14.409Z,74.03
2023-03-04T04:06:46.723Z,74.11
2023-03-04T04:07:19.021Z,74.08
2023-03-04T04:07:53.693Z,73.97
2023-03-04T04:08:26.343Z,73.93
2023-03-04T04:08:58.639Z,73.85
2023-03-04T04:09:30.903Z,74.10
2023-03-04T04:10:04.636Z,74.19
2023-03-04T04:10:37.002Z,74.30
2023-03-04T04:11:13.456Z,74.08
2023-03-04T04:11:45.892Z,73.71
2023-03-04T04:12:19.240Z,73.57
2023-03-04T04:12:51.576Z,73.59
2023-03-04T04:13:23.850Z,73.30
2023-03-04T04:13:56.139Z,73.05
2023-03-04T04:14:28.479Z,73.16
2023-03-04T04:15:00.907Z,73.36
2023-03-04T04:15:33.242Z,73.47
2023-03-04T04:16:06.213Z,73.62
2023-03-04T04:16:38.619Z,73.79
2023-03-04T04:17:11.601Z,73.91
2023-03-04T04:17:43.923Z,73.83
2023-03-04T04:18:16.176Z,73.75
2023-03-04T04:18:48.445Z,73.66
2023-03-04T04:19:21.543Z,73.54
2023-03-04T04:19:53.810Z,73.57
2023-03-04T04:20:26.385Z,73.76
2023-03-04T04:20:58.673Z,73.99
2023-03-04T04:21:31.021Z,73.72
2023-03-04T04:22:03.585Z,73.64
2023-03-04T04:22:35.853Z,73.82
2023-03-04T04:23:08.119Z,74.20
2023-03-04T04:23:40.432Z,74.01
2023-03-04T04:24:12.791Z,74.03
2023-03-04T04:24:45.270Z,74.04
2023-03-04T04:25:17.925Z,73.91
2023-03-04T04:25:50.204Z,73.96
2023-03-04T04:26:22.531Z,74.00
2023-03-04T04:26:54.994Z,73.66
2023-03-04T04:27:27.351Z,73.42
2023-03-04T04:27:59.716Z,73.87
2023-03-04T04:28:32.231Z,74.50
2023-03-04T04:29:04.561Z,74.93
2023-03-04T04:29:37.534Z,74.90
2023-03-04T04:30:10.578Z,74.90
2023-03-04T04:30:43.052Z,74.72
2023-03-04T04:31:15.447Z,74.44
2023-03-04T04:31:47.767Z,74.32
2023-03-04T04:32:20.161Z,74.43
2023-03-04T04:32:52.472Z,74.59
2023-03-04T04:33:24.772Z,74.54
2023-03-04T04:33:57.253Z,74.35
2023-03-04T04:34:30.016Z,74.43
2023-03-04T04:35:02.285Z,74.38
2023-03-04T04:35:36.567Z,74.15
2023-03-04T04:36:14.478Z,74.11
2023-03-04T04:36:46.799Z,73.86
2023-03-04T04:37:19.665Z,73.19
2023-03-04T04:37:51.932Z,72.86
2023-03-04T04:38:24.776Z,72.63
2023-03-04T04:38:57.664Z,72.53
2023-03-04T04:39:29.971Z,72.58
2023-03-04T04:40:02.658Z,72.60
2023-03-04T04:40:35.440Z,72.52
2023-03-04T04:41:26.332Z,72.72
2023-03-04T04:41:58.674Z,73.36
2023-03-04T04:42:31.127Z,73.52
2023-03-04T04:43:03.791Z,73.61
2023-03-04T04:43:36.126Z,73.64
2023-03-04T04:44:09.482Z,73.67
2023-03-04T04:44:41.737Z,73.53
2023-03-04T04:45:14.009Z,72.66
2023-03-04T04:45:46.352Z,72.13
2023-03-04T04:46:19.539Z,71.95
2023-03-04T04:46:51.966Z,71.83
2023-03-04T04:47:24.512Z,71.88
2023-03-04T04:47:57.498Z,72.17
2023-03-04T04:48:29.829Z,72.33
2023-03-04T04:49:02.777Z,72.52
2023-03-04T04:49:35.037Z,72.48
2023-03-04T04:50:07.907Z,72.23
2023-03-04T04:50:40.221Z,71.96
2023-03-04T04:51:13.356Z,71.90
2023-03-04T04:51:46.313Z,71.93
2023-03-04T04:52:18.693Z,72.00
2023-03-04T04:52:51.003Z,72.16
2023-03-04T04:53:23.324Z,72.16
2023-03-04T04:53:55.704Z,72.18
2023-03-04T04:54:28.041Z,72.26
2023-03-04T04:55:00.372Z,72.80
2023-03-04T04:55:34.807Z,73.09
2023-03-04T04:56:16.555Z,73.20
2023-03-04T04:56:48.825Z,73.27
2023-03-04T04:57:21.099Z,73.19
2023-03-04T04:57:53.404Z,73.20
2023-03-04T04:58:25.692Z,73.29
2023-03-04T04:59:01.027Z,73.21
2023-03-04T04:59:33.322Z,73.42
2023-03-04T05:00:06.946Z,73.19
2023-03-04T05:00:39.216Z,73.48
2023-03-04T05:01:12.354Z,73.63
2023-03-04T05:01:44.724Z,73.57
2023-03-04T05:02:17.103Z,73.53
2023-03-04T05:02:49.399Z,73.45
2023-03-04T05:03:23.550Z,73.18
2023-03-04T05:03:56.177Z,73.07
2023-03-04T05:04:28.532Z,73.03
2023-03-04T05:05:00.812Z,73.10
2023-03-04T05:05:33.128Z,73.28
2023-03-04T05:06:08.076Z,73.33
2023-03-04T05:06:40.493Z,73.57
2023-03-04T05:07:12.881Z,73.83
2023-03-04T05:07:45.151Z,74.05
2023-03-04T05:08:17.442Z,74.16
2023-03-04T05:08:50.661Z,74.16
2023-03-04T05:09:23.129Z,74.22
2023-03-04T05:09:55.399Z,74.07
2023-03-04T05:10:27.705Z,73.96
2023-03-04T05:11:00.330Z,74.04
2023-03-04T05:11:32.961Z,74.10
2023-03-04T05:12:05.365Z,74.14
2023-03-04T05:12:37.634Z,74.15
2023-03-04T05:13:09.895Z,74.13
2023-03-04T05:13:42.386Z,74.05
2023-03-04T05:14:14.764Z,73.95
2023-03-04T05:14:47.064Z,74.06
2023-03-04T05:15:19.338Z,74.13
2023-03-04T05:15:54.048Z,74.21
2023-03-04T05:16:26.423Z,74.22
2023-03-04T05:16:58.721Z,74.20
2023-03-04T05:17:30.964Z,74.28
2023-03-04T05:18:03.281Z,74.35
2023-03-04T05:18:35.693Z,74.54
2023-03-04T05:19:08.039Z,74.69
2023-03-04T05:19:40.375Z,74.35
2023-03-04T05:20:12.911Z,74.19
2023-03-04T05:20:45.207Z,74.52
2023-03-04T05:21:17.525Z,74.61
2023-03-04T05:21:49.824Z,74.55
2023-03-04T05:22:22.101Z,74.29
2023-03-04T05:22:54.398Z,74.11
2023-03-04T05:23:29.215Z,74.08
2023-03-04T05:24:01.624Z,74.34
2023-03-04T05:24:34.903Z,74.44
2023-03-04T05:25:07.511Z,74.43
2023-03-04T05:25:39.781Z,74.34
2023-03-04T05:26:15.631Z,74.26
2023-03-04T05:26:47.962Z,74.48
2023-03-04T05:27:20.269Z,74.45
2023-03-04T05:27:52.627Z,74.47
2023-03-04T05:28:24.931Z,74.19
2023-03-04T05:28:57.215Z,73.61
2023-03-04T05:29:29.519Z,73.66
2023-03-04T05:30:01.934Z,73.66
2023-03-04T05:30:34.258Z,73.40
2023-03-04T05:31:07.122Z,73.01
2023-03-04T05:31:39.429Z,73.05
2023-03-04T05:32:11.768Z,73.12
2023-03-04T05:32:44.028Z,73.06
2023-03-04T05:33:17.501Z,72.84
2023-03-04T05:33:49.776Z,72.75
2023-03-04T05:34:22.060Z,72.72
2023-03-04T05:34:54.364Z,72.86
2023-03-04T05:35:28.854Z,72.92
2023-03-04T05:36:02.355Z,73.17
2023-03-04T05:36:34.650Z,73.42
2023-03-04T05:37:06.926Z,73.53
2023-03-04T05:37:39.210Z,73.53
2023-03-04T05:38:14.355Z,73.70
2023-03-04T05:38:46.619Z,73.94
2023-03-04T05:39:18.931Z,74.29
2023-03-04T05:39:51.256Z,74.47
2023-03-04T05:40:25.721Z,74.38
2023-03-04T05:41:00.670Z,73.82
2023-03-04T05:41:32.954Z,74.18
2023-03-04T05:42:05.270Z,74.34
2023-03-04T05:42:37.576Z,74.17
2023-03-04T05:43:10.264Z,73.92
2023-03-04T05:43:42.950Z,73.80
2023-03-04T05:44:15.323Z,74.02
2023-03-04T05:44:47.592Z,74.13
2023-03-04T05:45:19.906Z,74.01
2023-03-04T05:45:52.180Z,74.13
2023-03-04T05:46:25.820Z,74.11
2023-03-04T05:46:58.281Z,74.02
2023-03-04T05:47:30.556Z,74.11
2023-03-04T05:48:03.199Z,74.24
2023-03-04T05:48:35.533Z,74.13
2023-03-04T05:49:07.856Z,74.13
2023-03-04T05:49:41.160Z,74.19
2023-03-04T05:50:13.491Z,74.11
2023-03-04T05:50:46.053Z,73.96
2023-03-04T05:51:19.247Z,74.00
2023-03-04T05:51:51.523Z,74.18
2023-03-04T05:52:23.813Z,74.18
2023-03-04T05:52:56.114Z,74.17
2023-03-04T05:53:29.122Z,74.16
2023-03-04T05:54:01.415Z,74.11
2023-03-04T05:54:33.731Z,74.06
2023-03-04T05:55:06.613Z,74.01
2023-03-04T05:55:38.870Z,73.95
2023-03-04T05:56:16.644Z,74.04
2023-03-04T05:56:48.909Z,74.20
2023-03-04T05:57:21.231Z,74.26
2023-03-04T05:57:53.885Z,74.28
2023-03-04T05:58:26.309Z,74.13
2023-03-04T05:58:59.243Z,73.79
2023-03-04T05:59:31.548Z,73.56
2023-03-04T06:00:05.921Z,73.45
2023-03-04T06:00:38.210Z,73.49
2023-03-04T06:01:11.155Z,73.43
2023-03-04T06:01:43.428Z,73.36
2023-03-04T06:02:15.713Z,73.34
2023-03-04T06:02:48.080Z,73.34
2023-03-04T06:03:22.540Z,73.33
2023-03-04T06:03:54.979Z,73.59
2023-03-04T06:04:27.346Z,73.82
2023-03-04T06:04:59.615Z,73.60
2023-03-04T06:05:31.915Z,73.65
2023-03-04T06:06:04.495Z,73.97
2023-03-04T06:06:36.784Z,73.88
2023-03-04T06:07:09.121Z,74.00
2023-03-04T06:07:43.279Z,74.11
2023-03-04T06:08:15.674Z,73.88
2023-03-04T06:08:47.961Z,73.92
2023-03-04T06:09:21.230Z,74.20
2023-03-04T06:09:53.522Z,74.39
2023-03-04T06:10:25.794Z,74.42
2023-03-04T06:10:59.159Z,74.27
2023-03-04T06:11:31.462Z,74.18
2023-03-04T06:12:03.792Z,74.21
2023-03-04T06:12:36.265Z,74.35
2023-03-04T06:13:09.390Z,74.36
2023-03-04T06:13:41.735Z,74.22
2023-03-04T06:14:14.066Z,74.34
2023-03-04T06:14:46.374Z,74.74
2023-03-04T06:15:18.648Z,74.81
2023-03-04T06:15:56.347Z,74.77
2023-03-04T06:16:28.738Z,74.74
2023-03-04T06:17:01.036Z,74.79
2023-03-04T06:17:33.386Z,74.80
2023-03-04T06:18:07.562Z,74.85
2023-03-04T06:18:39.925Z,75.03
2023-03-04T06:19:12.241Z,74.81
2023-03-04T06:19:44.566Z,74.83
2023-03-04T06:20:16.920Z,74.84
2023-03-04T06:20:49.354Z,74.65
2023-03-04T06:21:21.603Z,74.50
2023-03-04T06:21:53.890Z,74.46
2023-03-04T06:22:26.231Z,74.66
2023-03-04T06:22:58.695Z,74.73
2023-03-04T06:23:31.153Z,74.58
2023-03-04T06:24:03.439Z,74.48
2023-03-04T06:24:36.385Z,74.51
2023-03-04T06:25:08.953Z,74.60
2023-03-04T06:25:41.257Z,74.48
2023-03-04T06:26:15.633Z,74.38
2023-03-04T06:26:48.076Z,74.55
2023-03-04T06:27:20.375Z,74.58
2023-03-04T06:27:54.815Z,74.72
2023-03-04T06:28:28.003Z,74.80
2023-03-04T06:29:00.289Z,74.51
2023-03-04T06:29:32.880Z,74.59
2023-03-04T06:30:05.732Z,74.94
2023-03-04T06:30:38.087Z,75.10
2023-03-04T06:31:10.516Z,75.30
2023-03-04T06:31:42.939Z,75.09
2023-03-04T06:32:15.312Z,75.32
2023-03-04T06:32:48.056Z,75.38
2023-03-04T06:33:20.689Z,75.37
2023-03-04T06:33:52.976Z,75.69
2023-03-04T06:34:25.246Z,75.30
2023-03-04T06:34:57.506Z,75.50
2023-03-04T06:35:30.015Z,74.89
2023-03-04T06:36:02.472Z,74.93
2023-03-04T06:36:35.000Z,75.27
2023-03-04T06:37:07.343Z,75.33
2023-03-04T06:37:39.742Z,75.28
2023-03-04T06:38:12.103Z,75.50
2023-03-04T06:38:44.401Z,75.51
2023-03-04T06:39:17.049Z,75.23
2023-03-04T06:39:49.325Z,74.90
2023-03-04T06:40:21.584Z,74.76
2023-03-04T06:40:56.812Z,74.71
2023-03-04T06:41:29.662Z,74.45
2023-03-04T06:42:02.051Z,74.27
2023-03-04T06:42:35.346Z,74.31
2023-03-04T06:43:07.631Z,74.05
2023-03-04T06:43:40.393Z,73.81
2023-03-04T06:44:13.035Z,73.36
2023-03-04T06:44:45.366Z,73.59
2023-03-04T06:45:17.794Z,73.71
2023-03-04T06:45:50.188Z,73.68
2023-03-04T06:46:22.707Z,73.74
2023-03-04T06:46:55.184Z,73.70
2023-03-04T06:47:28.701Z,73.27
2023-03-04T06:48:00.960Z,72.86
2023-03-04T06:48:33.294Z,72.64
2023-03-04T06:49:05.622Z,72.59
2023-03-04T06:49:37.880Z,72.76
2023-03-04T06:50:12.164Z,73.00
2023-03-04T06:50:44.454Z,72.21
2023-03-04T06:51:16.849Z,72.74
2023-03-04T06:51:49.198Z,73.35
2023-03-04T06:52:21.532Z,73.48
2023-03-04T06:52:57.022Z,73.44
2023-03-04T06:53:29.286Z,73.31
2023-03-04T06:54:01.572Z,73.19
2023-03-04T06:54:33.886Z,72.82
2023-03-04T06:55:07.157Z,72.43
2023-03-04T06:55:39.447Z,72.71
2023-03-04T06:56:16.101Z,72.96
2023-03-04T06:56:48.680Z,72.94
2023-03-04T06:57:20.944Z,72.67
2023-03-04T06:57:53.211Z,72.14
2023-03-04T06:58:25.483Z,72.16
2023-03-04T06:58:57.802Z,72.36
2023-03-04T06:59:30.108Z,72.37
2023-03-04T07:00:03.449Z,72.43
2023-03-04T07:00:35.812Z,72.59
2023-03-04T07:01:19.479Z,72.29
2023-03-04T07:01:51.794Z,71.74
2023-03-04T07:02:24.170Z,71.78
2023-03-04T07:02:58.489Z,71.97
2023-03-04T07:03:30.770Z,72.41
2023-03-04T07:04:03.064Z,72.31
2023-03-04T07:04:35.352Z,71.60
2023-03-04T07:05:08.875Z,71.06
2023-03-04T07:05:42.881Z,70.62
2023-03-04T07:06:17.811Z,70.93
2023-03-04T07:06:50.876Z,70.78